Terminal Aerodrome Forecast
Issued by NWS

Home | Current Version | Previous Version | Graphics & Text | Print | Product List | Glossary On
Versions: 1 2 3 4 5 6 7 8 9 10 11 12 13 14 15 16 17 18
000
FTUS43 KFGF 250500
TAFBJI
TAF
KBJI 250520Z 2506/2606 15012G20KT P6SM BKN010
     FM251100 22013KT P6SM BKN015
     FM251400 29017G25KT 2SM -SN OVC005
     FM251800 30023G30KT 5SM -SN BKN007
     FM252300 32018G25KT P6SM BKN015=

USA.gov is the U.S. government's official web portal to all federal, state and local government web resources and services.